sensor_id;sensor_type;location;lat;lon;timestamp;P1;durP1;ratioP1;P2;durP2;ratioP2
2035;SDS011;23642;42.658;23.350;2022-08-11T00:02:16;83.33;;;78.23;;
2035;SDS011;23642;42.658;23.350;2022-08-11T00:04:51;80.73;;;75.73;;
2035;SDS011;23642;42.658;23.350;2022-08-11T00:07:21;84.67;;;79.47;;
2035;SDS011;23642;42.658;23.350;2022-08-11T00:09:50;80.50;;;75.50;;
2035;SDS011;23642;42.658;23.350;2022-08-11T00:12:20;84.00;;;78.80;;
2035;SDS011;23642;42.658;23.350;2022-08-11T00:14:54;81.50;;;76.40;;
2035;SDS011;23642;42.658;23.350;2022-08-11T00:17:25;80.73;;;75.80;;
2035;SDS011;23642;42.658;23.350;2022-08-11T00:19:59;82.47;;;77.33;;
2035;SDS011;23642;42.658;23.350;2022-08-11T00:22:29;81.90;;;76.70;;
2035;SDS011;23642;42.658;23.350;2022-08-11T00:24:56;80.43;;;75.40;;
2035;SDS011;23642;42.658;23.350;2022-08-11T00:27:37;82.53;;;77.27;;
2035;SDS011;23642;42.658;23.350;2022-08-11T00:30:06;81.97;;;76.80;;
2035;SDS011;23642;42.658;23.350;2022-08-11T00:32:35;79.23;;;74.13;;
2035;SDS011;23642;42.658;23.350;2022-08-11T00:35:04;79.40;;;74.40;;
2035;SDS011;23642;42.658;23.350;2022-08-11T00:37:33;77.07;;;72.27;;
2035;SDS011;23642;42.658;23.350;2022-08-11T00:40:03;83.07;;;77.50;;
2035;SDS011;23642;42.658;23.350;2022-08-11T00:42:44;81.73;;;76.60;;
2035;SDS011;23642;42.658;23.350;2022-08-11T00:45:25;79.73;;;74.67;;
2035;SDS011;23642;42.658;23.350;2022-08-11T00:47:58;80.97;;;75.93;;
2035;SDS011;23642;42.658;23.350;2022-08-11T00:50:35;80.40;;;75.30;;
2035;SDS011;23642;42.658;23.350;2022-08-11T01:02:25;78.10;;;73.10;;
2035;SDS011;23642;42.658;23.350;2022-08-11T01:05:15;78.73;;;73.63;;
2035;SDS011;23642;42.658;23.350;2022-08-11T01:08:12;79.50;;;74.50;;
2035;SDS011;23642;42.658;23.350;2022-08-11T01:14:33;78.00;;;73.20;;
2035;SDS011;23642;42.658;23.350;2022-08-11T01:26:43;76.70;;;71.90;;
2035;SDS011;23642;42.658;23.350;2022-08-11T01:29:39;78.27;;;73.07;;
2035;SDS011;23642;42.658;23.350;2022-08-11T01:39:12;76.23;;;71.30;;
2035;SDS011;23642;42.658;23.350;2022-08-11T01:42:23;75.17;;;70.37;;
2035;SDS011;23642;42.658;23.350;2022-08-11T01:45:31;75.03;;;70.20;;
2035;SDS011;23642;42.658;23.350;2022-08-11T01:48:07;74.27;;;69.57;;
2035;SDS011;23642;42.658;23.350;2022-08-11T01:50:49;77.63;;;72.63;;
2035;SDS011;23642;42.658;23.350;2022-08-11T01:53:29;73.57;;;68.80;;
2035;SDS011;23642;42.658;23.350;2022-08-11T01:56:08;74.23;;;69.43;;
2035;SDS011;23642;42.658;23.350;2022-08-11T01:58:47;73.80;;;68.93;;
2035;SDS011;23642;42.658;23.350;2022-08-11T02:01:27;75.20;;;70.40;;
2035;SDS011;23642;42.658;23.350;2022-08-11T02:04:08;75.80;;;70.90;;
2035;SDS011;23642;42.658;23.350;2022-08-11T02:06:49;73.30;;;68.60;;
2035;SDS011;23642;42.658;23.350;2022-08-11T02:09:24;72.27;;;67.67;;
2035;SDS011;23642;42.658;23.350;2022-08-11T02:12:02;75.40;;;70.57;;
2035;SDS011;23642;42.658;23.350;2022-08-11T02:14:42;75.83;;;71.03;;
2035;SDS011;23642;42.658;23.350;2022-08-11T02:17:16;75.37;;;70.17;;
2035;SDS011;23642;42.658;23.350;2022-08-11T02:19:49;73.57;;;68.87;;
2035;SDS011;23642;42.658;23.350;2022-08-11T02:22:41;76.13;;;71.23;;
2035;SDS011;23642;42.658;23.350;2022-08-11T02:25:35;74.03;;;69.20;;
2035;SDS011;23642;42.658;23.350;2022-08-11T02:28:09;74.10;;;69.30;;
2035;SDS011;23642;42.658;23.350;2022-08-11T02:30:46;76.07;;;71.17;;
2035;SDS011;23642;42.658;23.350;2022-08-11T02:33:39;74.93;;;70.10;;
2035;SDS011;23642;42.658;23.350;2022-08-11T02:36:09;75.43;;;70.63;;
2035;SDS011;23642;42.658;23.350;2022-08-11T02:38:45;72.70;;;67.97;;
2035;SDS011;23642;42.658;23.350;2022-08-11T02:41:20;74.40;;;69.50;;
2035;SDS011;23642;42.658;23.350;2022-08-11T02:44:19;73.93;;;69.23;;
2035;SDS011;23642;42.658;23.350;2022-08-11T02:46:57;72.80;;;67.30;;
2035;SDS011;23642;42.658;23.350;2022-08-11T02:49:35;72.13;;;67.53;;
2035;SDS011;23642;42.658;23.350;2022-08-11T02:52:25;75.17;;;70.07;;
2035;SDS011;23642;42.658;23.350;2022-08-11T02:55:11;74.40;;;69.50;;
2035;SDS011;23642;42.658;23.350;2022-08-11T02:57:46;75.03;;;70.17;;
2035;SDS011;23642;42.658;23.350;2022-08-11T03:00:19;73.90;;;69.10;;
2035;SDS011;23642;42.658;23.350;2022-08-11T03:05:48;74.20;;;69.20;;
2035;SDS011;23642;42.658;23.350;2022-08-11T03:08:35;72.77;;;67.77;;
2035;SDS011;23642;42.658;23.350;2022-08-11T03:11:14;71.40;;;66.57;;
2035;SDS011;23642;42.658;23.350;2022-08-11T03:14:08;71.43;;;66.63;;
2035;SDS011;23642;42.658;23.350;2022-08-11T03:17:03;72.60;;;67.63;;
2035;SDS011;23642;42.658;23.350;2022-08-11T03:19:43;72.07;;;67.40;;
2035;SDS011;23642;42.658;23.350;2022-08-11T03:22:20;71.67;;;66.87;;
2035;SDS011;23642;42.658;23.350;2022-08-11T03:24:53;72.30;;;67.60;;
2035;SDS011;23642;42.658;23.350;2022-08-11T03:27:36;73.03;;;68.33;;
2035;SDS011;23642;42.658;23.350;2022-08-11T03:30:13;73.60;;;68.80;;
2035;SDS011;23642;42.658;23.350;2022-08-11T03:36:02;72.90;;;67.63;;
2035;SDS011;23642;42.658;23.350;2022-08-11T03:38:41;72.73;;;67.70;;
2035;SDS011;23642;42.658;23.350;2022-08-11T03:41:19;72.60;;;67.80;;
2035;SDS011;23642;42.658;23.350;2022-08-11T03:44:24;73.27;;;68.13;;
2035;SDS011;23642;42.658;23.350;2022-08-11T03:50:05;74.40;;;69.40;;
2035;SDS011;23642;42.658;23.350;2022-08-11T03:52:47;72.90;;;68.10;;
2035;SDS011;23642;42.658;23.350;2022-08-11T03:55:22;75.37;;;70.00;;
2035;SDS011;23642;42.658;23.350;2022-08-11T04:01:14;75.23;;;70.27;;
2035;SDS011;23642;42.658;23.350;2022-08-11T04:04:17;76.70;;;71.40;;
2035;SDS011;23642;42.658;23.350;2022-08-11T04:07:16;73.73;;;68.80;;
2035;SDS011;23642;42.658;23.350;2022-08-11T04:10:22;75.00;;;69.80;;
2035;SDS011;23642;42.658;23.350;2022-08-11T04:16:46;75.80;;;70.80;;
2035;SDS011;23642;42.658;23.350;2022-08-11T04:19:24;72.63;;;67.47;;
2035;SDS011;23642;42.658;23.350;2022-08-11T04:22:33;75.30;;;70.40;;
2035;SDS011;23642;42.658;23.350;2022-08-11T04:25:22;76.97;;;71.87;;
2035;SDS011;23642;42.658;23.350;2022-08-11T04:31:07;79.03;;;73.60;;
2035;SDS011;23642;42.658;23.350;2022-08-11T04:36:40;78.33;;;72.97;;
2035;SDS011;23642;42.658;23.350;2022-08-11T04:39:52;82.20;;;76.70;;
2035;SDS011;23642;42.658;23.350;2022-08-11T04:46:08;78.87;;;73.63;;
2035;SDS011;23642;42.658;23.350;2022-08-11T04:55:59;81.33;;;76.00;;
2035;SDS011;23642;42.658;23.350;2022-08-11T04:58:51;82.00;;;76.37;;
2035;SDS011;23642;42.658;23.350;2022-08-11T05:01:54;81.03;;;75.83;;
2035;SDS011;23642;42.658;23.350;2022-08-11T05:04:58;82.70;;;77.33;;
2035;SDS011;23642;42.658;23.350;2022-08-11T05:17:30;80.80;;;75.37;;
2035;SDS011;23642;42.658;23.350;2022-08-11T05:20:19;84.80;;;79.37;;
2035;SDS011;23642;42.658;23.350;2022-08-11T05:23:07;83.30;;;78.00;;
2035;SDS011;23642;42.658;23.350;2022-08-11T05:25:55;83.17;;;77.77;;
2035;SDS011;23642;42.658;23.350;2022-08-11T05:28:48;83.67;;;78.27;;
2035;SDS011;23642;42.658;23.350;2022-08-11T05:31:36;82.37;;;77.07;;
2035;SDS011;23642;42.658;23.350;2022-08-11T05:34:24;85.97;;;80.27;;
2035;SDS011;23642;42.658;23.350;2022-08-11T05:37:13;88.70;;;82.57;;
2035;SDS011;23642;42.658;23.350;2022-08-11T05:39:46;85.80;;;80.20;;
2035;SDS011;23642;42.658;23.350;2022-08-11T05:42:32;86.53;;;80.80;;
2035;SDS011;23642;42.658;23.350;2022-08-11T05:45:22;87.93;;;82.13;;
2035;SDS011;23642;42.658;23.350;2022-08-11T05:48:07;84.97;;;79.43;;
2035;SDS011;23642;42.658;23.350;2022-08-11T05:50:52;85.60;;;80.10;;
2035;SDS011;23642;42.658;23.350;2022-08-11T05:53:45;88.20;;;82.40;;
2035;SDS011;23642;42.658;23.350;2022-08-11T05:56:33;86.47;;;80.87;;
2035;SDS011;23642;42.658;23.350;2022-08-11T05:59:12;87.90;;;82.20;;
2035;SDS011;23642;42.658;23.350;2022-08-11T06:01:44;87.50;;;81.80;;
2035;SDS011;23642;42.658;23.350;2022-08-11T06:04:15;87.30;;;81.50;;
2035;SDS011;23642;42.658;23.350;2022-08-11T06:06:51;88.73;;;82.93;;
2035;SDS011;23642;42.658;23.350;2022-08-11T06:09:28;83.60;;;78.23;;
2035;SDS011;23642;42.658;23.350;2022-08-11T06:12:00;87.30;;;81.70;;
2035;SDS011;23642;42.658;23.350;2022-08-11T06:14:29;88.93;;;83.13;;
2035;SDS011;23642;42.658;23.350;2022-08-11T06:17:02;88.80;;;83.10;;
2035;SDS011;23642;42.658;23.350;2022-08-11T06:19:35;89.10;;;82.97;;
2035;SDS011;23642;42.658;23.350;2022-08-11T06:22:05;87.60;;;81.90;;
2035;SDS011;23642;42.658;23.350;2022-08-11T06:24:38;90.03;;;83.90;;
2035;SDS011;23642;42.658;23.350;2022-08-11T06:27:10;89.83;;;84.03;;
2035;SDS011;23642;42.658;23.350;2022-08-11T06:29:46;92.17;;;86.37;;
2035;SDS011;23642;42.658;23.350;2022-08-11T06:32:17;91.13;;;85.23;;
2035;SDS011;23642;42.658;23.350;2022-08-11T06:37:45;89.20;;;83.50;;
2035;SDS011;23642;42.658;23.350;2022-08-11T06:40:25;89.37;;;83.60;;
2035;SDS011;23642;42.658;23.350;2022-08-11T06:43:05;88.43;;;82.70;;
2035;SDS011;23642;42.658;23.350;2022-08-11T06:45:48;89.87;;;83.97;;
2035;SDS011;23642;42.658;23.350;2022-08-11T06:48:25;86.27;;;80.87;;
2035;SDS011;23642;42.658;23.350;2022-08-11T06:51:10;89.10;;;83.40;;
2035;SDS011;23642;42.658;23.350;2022-08-11T06:53:41;87.20;;;81.30;;
2035;SDS011;23642;42.658;23.350;2022-08-11T06:56:22;85.20;;;79.80;;
2035;SDS011;23642;42.658;23.350;2022-08-11T06:59:13;90.03;;;84.23;;
2035;SDS011;23642;42.658;23.350;2022-08-11T07:02:02;87.70;;;82.30;;
2035;SDS011;23642;42.658;23.350;2022-08-11T07:04:40;91.40;;;85.80;;
2035;SDS011;23642;42.658;23.350;2022-08-11T07:07:17;88.33;;;82.87;;
2035;SDS011;23642;42.658;23.350;2022-08-11T07:10:34;89.80;;;84.00;;
2035;SDS011;23642;42.658;23.350;2022-08-11T07:13:30;90.27;;;84.63;;
2035;SDS011;23642;42.658;23.350;2022-08-11T07:16:21;90.97;;;85.27;;
2035;SDS011;23642;42.658;23.350;2022-08-11T07:18:56;89.20;;;83.43;;
2035;SDS011;23642;42.658;23.350;2022-08-11T07:21:46;88.40;;;82.97;;
2035;SDS011;23642;42.658;23.350;2022-08-11T07:24:34;88.33;;;82.87;;
2035;SDS011;23642;42.658;23.350;2022-08-11T07:27:21;87.40;;;82.00;;
2035;SDS011;23642;42.658;23.350;2022-08-11T07:30:11;88.30;;;82.90;;
2035;SDS011;23642;42.658;23.350;2022-08-11T07:32:40;86.83;;;81.33;;
2035;SDS011;23642;42.658;23.350;2022-08-11T07:35:14;89.03;;;83.30;;
2035;SDS011;23642;42.658;23.350;2022-08-11T07:37:46;89.53;;;84.03;;
2035;SDS011;23642;42.658;23.350;2022-08-11T07:40:19;86.10;;;80.80;;
2035;SDS011;23642;42.658;23.350;2022-08-11T07:42:48;86.57;;;81.23;;
2035;SDS011;23642;42.658;23.350;2022-08-11T07:45:15;86.80;;;81.27;;
2035;SDS011;23642;42.658;23.350;2022-08-11T07:48:00;87.47;;;82.07;;
2035;SDS011;23642;42.658;23.350;2022-08-11T07:50:46;89.93;;;84.33;;
2035;SDS011;23642;42.658;23.350;2022-08-11T07:56:19;88.67;;;83.17;;
2035;SDS011;23642;42.658;23.350;2022-08-11T07:58:47;89.83;;;84.23;;
2035;SDS011;23642;42.658;23.350;2022-08-11T08:01:33;84.97;;;79.73;;
2035;SDS011;23642;42.658;23.350;2022-08-11T08:04:18;88.27;;;82.80;;
2035;SDS011;23642;42.658;23.350;2022-08-11T08:07:05;92.30;;;86.70;;
2035;SDS011;23642;42.658;23.350;2022-08-11T08:09:49;89.20;;;83.80;;
2035;SDS011;23642;42.658;23.350;2022-08-11T08:12:43;91.13;;;85.33;;
2035;SDS011;23642;42.658;23.350;2022-08-11T08:15:27;89.17;;;83.47;;
2035;SDS011;23642;42.658;23.350;2022-08-11T08:18:15;89.00;;;83.60;;
2035;SDS011;23642;42.658;23.350;2022-08-11T08:20:45;90.20;;;84.30;;
2035;SDS011;23642;42.658;23.350;2022-08-11T08:23:16;90.93;;;85.43;;
2035;SDS011;23642;42.658;23.350;2022-08-11T08:26:02;91.67;;;86.00;;
2035;SDS011;23642;42.658;23.350;2022-08-11T08:28:53;91.00;;;85.60;;
2035;SDS011;23642;42.658;23.350;2022-08-11T08:31:43;90.50;;;85.00;;
2035;SDS011;23642;42.658;23.350;2022-08-11T08:34:12;86.63;;;81.33;;
2035;SDS011;23642;42.658;23.350;2022-08-11T08:36:42;87.37;;;82.10;;
2035;SDS011;23642;42.658;23.350;2022-08-11T08:39:30;91.30;;;85.90;;
2035;SDS011;23642;42.658;23.350;2022-08-11T08:42:05;89.70;;;84.30;;
2035;SDS011;23642;42.658;23.350;2022-08-11T08:44:44;90.07;;;84.17;;
2035;SDS011;23642;42.658;23.350;2022-08-11T08:47:13;89.23;;;83.83;;
2035;SDS011;23642;42.658;23.350;2022-08-11T08:49:44;88.50;;;83.20;;
2035;SDS011;23642;42.658;23.350;2022-08-11T08:52:17;89.07;;;83.40;;
2035;SDS011;23642;42.658;23.350;2022-08-11T08:54:54;89.83;;;84.43;;
2035;SDS011;23642;42.658;23.350;2022-08-11T08:57:25;88.03;;;82.63;;
2035;SDS011;23642;42.658;23.350;2022-08-11T08:59:56;88.70;;;83.43;;
2035;SDS011;23642;42.658;23.350;2022-08-11T09:02:38;88.93;;;83.53;;
2035;SDS011;23642;42.658;23.350;2022-08-11T09:05:08;89.50;;;84.10;;
2035;SDS011;23642;42.658;23.350;2022-08-11T09:07:37;88.10;;;82.70;;
2035;SDS011;23642;42.658;23.350;2022-08-11T09:10:29;88.60;;;83.13;;
2035;SDS011;23642;42.658;23.350;2022-08-11T09:12:59;89.43;;;84.07;;
2035;SDS011;23642;42.658;23.350;2022-08-11T09:15:31;88.63;;;83.33;;
2035;SDS011;23642;42.658;23.350;2022-08-11T09:18:08;89.90;;;84.50;;
2035;SDS011;23642;42.658;23.350;2022-08-11T09:20:36;89.70;;;84.30;;
2035;SDS011;23642;42.658;23.350;2022-08-11T09:23:05;86.83;;;81.63;;
2035;SDS011;23642;42.658;23.350;2022-08-11T09:25:54;89.10;;;83.70;;
2035;SDS011;23642;42.658;23.350;2022-08-11T09:28:41;86.70;;;81.40;;
2035;SDS011;23642;42.658;23.350;2022-08-11T09:31:11;90.23;;;84.73;;
2035;SDS011;23642;42.658;23.350;2022-08-11T09:33:39;88.00;;;82.70;;
2035;SDS011;23642;42.658;23.350;2022-08-11T09:36:08;87.00;;;81.70;;
2035;SDS011;23642;42.658;23.350;2022-08-11T09:38:54;87.77;;;82.20;;
2035;SDS011;23642;42.658;23.350;2022-08-11T09:41:40;88.00;;;82.60;;
2035;SDS011;23642;42.658;23.350;2022-08-11T09:44:22;84.97;;;79.87;;
2035;SDS011;23642;42.658;23.350;2022-08-11T09:47:13;86.77;;;81.47;;
2035;SDS011;23642;42.658;23.350;2022-08-11T09:49:47;88.43;;;83.00;;
2035;SDS011;23642;42.658;23.350;2022-08-11T09:52:17;87.90;;;82.50;;
2035;SDS011;23642;42.658;23.350;2022-08-11T09:54:45;86.40;;;80.73;;
2035;SDS011;23642;42.658;23.350;2022-08-11T09:57:14;89.20;;;83.80;;
2035;SDS011;23642;42.658;23.350;2022-08-11T10:00:12;89.47;;;84.07;;
2035;SDS011;23642;42.658;23.350;2022-08-11T10:02:43;89.63;;;84.33;;
2035;SDS011;23642;42.658;23.350;2022-08-11T10:05:14;85.73;;;80.53;;
2035;SDS011;23642;42.658;23.350;2022-08-11T10:08:02;85.90;;;80.80;;
2035;SDS011;23642;42.658;23.350;2022-08-11T10:10:30;87.07;;;81.87;;
2035;SDS011;23642;42.658;23.350;2022-08-11T10:13:02;88.97;;;83.67;;
2035;SDS011;23642;42.658;23.350;2022-08-11T10:15:33;88.43;;;83.13;;
2035;SDS011;23642;42.658;23.350;2022-08-11T10:18:14;87.67;;;82.23;;
2035;SDS011;23642;42.658;23.350;2022-08-11T10:21:01;89.37;;;83.97;;
2035;SDS011;23642;42.658;23.350;2022-08-11T10:23:33;88.50;;;83.20;;
2035;SDS011;23642;42.658;23.350;2022-08-11T10:26:19;84.67;;;79.57;;
2035;SDS011;23642;42.658;23.350;2022-08-11T10:29:04;89.30;;;83.90;;
2035;SDS011;23642;42.658;23.350;2022-08-11T10:31:53;88.33;;;82.73;;
2035;SDS011;23642;42.658;23.350;2022-08-11T10:34:42;88.50;;;83.20;;
2035;SDS011;23642;42.658;23.350;2022-08-11T10:37:11;89.90;;;84.50;;
2035;SDS011;23642;42.658;23.350;2022-08-11T10:39:40;88.17;;;82.77;;
2035;SDS011;23642;42.658;23.350;2022-08-11T10:42:09;90.50;;;84.37;;
2035;SDS011;23642;42.658;23.350;2022-08-11T10:44:56;88.80;;;83.30;;
2035;SDS011;23642;42.658;23.350;2022-08-11T10:47:26;87.97;;;82.70;;
2035;SDS011;23642;42.658;23.350;2022-08-11T10:50:01;91.47;;;85.70;;
2035;SDS011;23642;42.658;23.350;2022-08-11T10:52:47;87.27;;;81.80;;
2035;SDS011;23642;42.658;23.350;2022-08-11T10:55:33;88.67;;;83.27;;
2035;SDS011;23642;42.658;23.350;2022-08-11T10:58:19;88.10;;;82.90;;
2035;SDS011;23642;42.658;23.350;2022-08-11T11:01:05;86.47;;;81.10;;
2035;SDS011;23642;42.658;23.350;2022-08-11T11:03:34;86.60;;;81.33;;
2035;SDS011;23642;42.658;23.350;2022-08-11T11:06:07;85.47;;;80.37;;
2035;SDS011;23642;42.658;23.350;2022-08-11T11:08:50;88.23;;;82.93;;
2035;SDS011;23642;42.658;23.350;2022-08-11T11:11:27;87.50;;;82.27;;
2035;SDS011;23642;42.658;23.350;2022-08-11T11:14:19;86.40;;;81.07;;
2035;SDS011;23642;42.658;23.350;2022-08-11T11:17:06;85.90;;;80.70;;
2035;SDS011;23642;42.658;23.350;2022-08-11T11:19:54;87.33;;;82.03;;
2035;SDS011;23642;42.658;23.350;2022-08-11T11:22:27;87.20;;;81.90;;
2035;SDS011;23642;42.658;23.350;2022-08-11T11:25:20;84.40;;;79.20;;
2035;SDS011;23642;42.658;23.350;2022-08-11T11:27:53;84.97;;;79.47;;
2035;SDS011;23642;42.658;23.350;2022-08-11T11:30:36;85.23;;;80.03;;
2035;SDS011;23642;42.658;23.350;2022-08-11T11:33:21;87.23;;;81.00;;
2035;SDS011;23642;42.658;23.350;2022-08-11T11:35:56;83.67;;;78.47;;
2035;SDS011;23642;42.658;23.350;2022-08-11T11:38:42;85.43;;;79.93;;
2035;SDS011;23642;42.658;23.350;2022-08-11T11:41:10;86.00;;;80.80;;
2035;SDS011;23642;42.658;23.350;2022-08-11T11:43:57;88.30;;;83.00;;
2035;SDS011;23642;42.658;23.350;2022-08-11T11:46:33;88.27;;;82.80;;
2035;SDS011;23642;42.658;23.350;2022-08-11T11:49:11;85.30;;;80.17;;
2035;SDS011;23642;42.658;23.350;2022-08-11T11:51:49;85.47;;;80.30;;
2035;SDS011;23642;42.658;23.350;2022-08-11T11:54:20;87.97;;;82.47;;
2035;SDS011;23642;42.658;23.350;2022-08-11T11:56:57;83.33;;;78.13;;
2035;SDS011;23642;42.658;23.350;2022-08-11T11:59:48;87.57;;;81.90;;
2035;SDS011;23642;42.658;23.350;2022-08-11T12:02:36;86.93;;;81.63;;
2035;SDS011;23642;42.658;23.350;2022-08-11T12:05:16;85.70;;;80.40;;
2035;SDS011;23642;42.658;23.350;2022-08-11T12:08:24;85.73;;;80.33;;
2035;SDS011;23642;42.658;23.350;2022-08-11T12:11:01;85.87;;;80.67;;
2035;SDS011;23642;42.658;23.350;2022-08-11T12:13:49;86.00;;;80.70;;
2035;SDS011;23642;42.658;23.350;2022-08-11T12:16:18;85.40;;;80.30;;
2035;SDS011;23642;42.658;23.350;2022-08-11T12:18:48;85.30;;;80.07;;
2035;SDS011;23642;42.658;23.350;2022-08-11T12:21:18;86.20;;;80.73;;
2035;SDS011;23642;42.658;23.350;2022-08-11T12:23:48;84.27;;;79.17;;
2035;SDS011;23642;42.658;23.350;2022-08-11T12:26:35;85.03;;;79.93;;
2035;SDS011;23642;42.658;23.350;2022-08-11T12:29:23;86.07;;;80.87;;
2035;SDS011;23642;42.658;23.350;2022-08-11T12:31:51;86.57;;;81.37;;
2035;SDS011;23642;42.658;23.350;2022-08-11T12:34:19;86.03;;;80.77;;
2035;SDS011;23642;42.658;23.350;2022-08-11T12:37:02;84.43;;;79.17;;
2035;SDS011;23642;42.658;23.350;2022-08-11T12:39:43;84.83;;;79.73;;
2035;SDS011;23642;42.658;23.350;2022-08-11T12:42:33;86.37;;;81.17;;
2035;SDS011;23642;42.658;23.350;2022-08-11T12:45:18;87.53;;;82.23;;
2035;SDS011;23642;42.658;23.350;2022-08-11T12:47:56;86.50;;;80.87;;
2035;SDS011;23642;42.658;23.350;2022-08-11T12:51:02;83.93;;;78.67;;
2035;SDS011;23642;42.658;23.350;2022-08-11T12:53:51;84.43;;;79.33;;
2035;SDS011;23642;42.658;23.350;2022-08-11T12:56:23;87.13;;;81.40;;
2035;SDS011;23642;42.658;23.350;2022-08-11T12:59:12;84.90;;;79.70;;
2035;SDS011;23642;42.658;23.350;2022-08-11T13:01:57;83.93;;;78.73;;
2035;SDS011;23642;42.658;23.350;2022-08-11T13:04:43;85.20;;;80.10;;
2035;SDS011;23642;42.658;23.350;2022-08-11T13:07:33;83.90;;;78.80;;
2035;SDS011;23642;42.658;23.350;2022-08-11T13:19:30;85.80;;;80.50;;
2035;SDS011;23642;42.658;23.350;2022-08-11T13:21:59;83.63;;;78.30;;
2035;SDS011;23642;42.658;23.350;2022-08-11T13:24:31;85.43;;;80.10;;
2035;SDS011;23642;42.658;23.350;2022-08-11T13:26:59;85.77;;;80.57;;
2035;SDS011;23642;42.658;23.350;2022-08-11T13:29:27;86.27;;;81.03;;
2035;SDS011;23642;42.658;23.350;2022-08-11T13:31:57;85.00;;;79.90;;
2035;SDS011;23642;42.658;23.350;2022-08-11T13:34:25;85.83;;;80.53;;
2035;SDS011;23642;42.658;23.350;2022-08-11T13:36:56;83.60;;;78.50;;
2035;SDS011;23642;42.658;23.350;2022-08-11T13:40:01;83.50;;;78.50;;
2035;SDS011;23642;42.658;23.350;2022-08-11T13:42:23;85.87;;;80.57;;
2035;SDS011;23642;42.658;23.350;2022-08-11T13:44:50;83.10;;;78.10;;
2035;SDS011;23642;42.658;23.350;2022-08-11T13:47:20;85.60;;;80.40;;
2035;SDS011;23642;42.658;23.350;2022-08-11T13:49:49;84.53;;;79.53;;
2035;SDS011;23642;42.658;23.350;2022-08-11T13:52:17;83.90;;;78.80;;
2035;SDS011;23642;42.658;23.350;2022-08-11T13:54:46;80.40;;;75.70;;
2035;SDS011;23642;42.658;23.350;2022-08-11T13:57:17;86.20;;;81.10;;
2035;SDS011;23642;42.658;23.350;2022-08-11T13:59:46;85.50;;;80.50;;
2035;SDS011;23642;42.658;23.350;2022-08-11T14:02:36;86.20;;;81.10;;
2035;SDS011;23642;42.658;23.350;2022-08-11T14:05:15;83.80;;;78.80;;
2035;SDS011;23642;42.658;23.350;2022-08-11T14:07:46;85.30;;;80.07;;
2035;SDS011;23642;42.658;23.350;2022-08-11T14:10:21;84.17;;;79.17;;
2035;SDS011;23642;42.658;23.350;2022-08-11T14:12:54;84.33;;;79.33;;
2035;SDS011;23642;42.658;23.350;2022-08-11T14:15:44;83.83;;;78.83;;
2035;SDS011;23642;42.658;23.350;2022-08-11T14:18:17;86.07;;;80.77;;
2035;SDS011;23642;42.658;23.350;2022-08-11T14:20:52;85.73;;;80.63;;
2035;SDS011;23642;42.658;23.350;2022-08-11T14:23:46;85.77;;;80.67;;
2035;SDS011;23642;42.658;23.350;2022-08-11T14:26:17;86.83;;;81.73;;
2035;SDS011;23642;42.658;23.350;2022-08-11T14:29:01;85.07;;;79.97;;
2035;SDS011;23642;42.658;23.350;2022-08-11T14:31:32;85.63;;;80.63;;
2035;SDS011;23642;42.658;23.350;2022-08-11T14:34:02;85.30;;;80.20;;
2035;SDS011;23642;42.658;23.350;2022-08-11T14:36:39;85.63;;;80.40;;
2035;SDS011;23642;42.658;23.350;2022-08-11T14:39:13;85.47;;;80.47;;
2035;SDS011;23642;42.658;23.350;2022-08-11T14:41:43;85.20;;;80.10;;
2035;SDS011;23642;42.658;23.350;2022-08-11T14:44:30;83.73;;;78.73;;
2035;SDS011;23642;42.658;23.350;2022-08-11T14:47:18;85.83;;;80.80;;
2035;SDS011;23642;42.658;23.350;2022-08-11T14:49:48;86.47;;;81.23;;
2035;SDS011;23642;42.658;23.350;2022-08-11T14:52:17;87.13;;;82.03;;
2035;SDS011;23642;42.658;23.350;2022-08-11T14:54:50;83.63;;;78.63;;
2035;SDS011;23642;42.658;23.350;2022-08-11T14:57:38;85.87;;;80.47;;
2035;SDS011;23642;42.658;23.350;2022-08-11T15:00:08;84.80;;;79.70;;
2035;SDS011;23642;42.658;23.350;2022-08-11T15:02:39;87.10;;;81.90;;
2035;SDS011;23642;42.658;23.350;2022-08-11T15:05:27;87.50;;;82.07;;
2035;SDS011;23642;42.658;23.350;2022-08-11T15:07:55;86.23;;;81.10;;
2035;SDS011;23642;42.658;23.350;2022-08-11T15:10:24;84.60;;;79.40;;
2035;SDS011;23642;42.658;23.350;2022-08-11T15:12:52;85.23;;;80.07;;
2035;SDS011;23642;42.658;23.350;2022-08-11T15:15:19;85.50;;;80.40;;
2035;SDS011;23642;42.658;23.350;2022-08-11T15:18:06;83.50;;;78.57;;
2035;SDS011;23642;42.658;23.350;2022-08-11T15:20:45;86.37;;;81.20;;
2035;SDS011;23642;42.658;23.350;2022-08-11T15:23:31;84.20;;;79.20;;
2035;SDS011;23642;42.658;23.350;2022-08-11T15:26:21;87.60;;;82.50;;
2035;SDS011;23642;42.658;23.350;2022-08-11T15:29:13;85.20;;;80.00;;
2035;SDS011;23642;42.658;23.350;2022-08-11T15:32:01;84.00;;;78.90;;
2035;SDS011;23642;42.658;23.350;2022-08-11T15:34:48;86.00;;;80.90;;
2035;SDS011;23642;42.658;23.350;2022-08-11T15:37:38;84.73;;;79.53;;
2035;SDS011;23642;42.658;23.350;2022-08-11T15:40:10;84.50;;;79.50;;
2035;SDS011;23642;42.658;23.350;2022-08-11T15:43:08;86.30;;;80.70;;
2035;SDS011;23642;42.658;23.350;2022-08-11T15:45:56;84.50;;;79.50;;
2035;SDS011;23642;42.658;23.350;2022-08-11T15:48:34;80.57;;;75.77;;
2035;SDS011;23642;42.658;23.350;2022-08-11T15:51:07;86.30;;;81.10;;
2035;SDS011;23642;42.658;23.350;2022-08-11T15:53:42;83.70;;;78.40;;
2035;SDS011;23642;42.658;23.350;2022-08-11T15:56:13;84.00;;;79.10;;
2035;SDS011;23642;42.658;23.350;2022-08-11T15:58:43;83.23;;;78.33;;
2035;SDS011;23642;42.658;23.350;2022-08-11T16:01:30;85.97;;;80.87;;
2035;SDS011;23642;42.658;23.350;2022-08-11T16:04:17;81.70;;;76.80;;
2035;SDS011;23642;42.658;23.350;2022-08-11T16:06:49;85.27;;;80.00;;
2035;SDS011;23642;42.658;23.350;2022-08-11T16:09:23;84.23;;;79.13;;
2035;SDS011;23642;42.658;23.350;2022-08-11T16:12:00;81.90;;;76.87;;
2035;SDS011;23642;42.658;23.350;2022-08-11T16:14:30;81.63;;;76.73;;
2035;SDS011;23642;42.658;23.350;2022-08-11T16:17:17;84.03;;;78.60;;
2035;SDS011;23642;42.658;23.350;2022-08-11T16:19:47;84.17;;;79.17;;
2035;SDS011;23642;42.658;23.350;2022-08-11T16:22:19;83.20;;;78.10;;
2035;SDS011;23642;42.658;23.350;2022-08-11T16:24:59;84.57;;;79.57;;
2035;SDS011;23642;42.658;23.350;2022-08-11T16:27:28;80.93;;;75.90;;
2035;SDS011;23642;42.658;23.350;2022-08-11T16:29:59;82.07;;;77.03;;
2035;SDS011;23642;42.658;23.350;2022-08-11T16:32:29;84.10;;;79.00;;
2035;SDS011;23642;42.658;23.350;2022-08-11T16:34:59;83.43;;;78.33;;
2035;SDS011;23642;42.658;23.350;2022-08-11T16:37:45;85.10;;;80.00;;
2035;SDS011;23642;42.658;23.350;2022-08-11T16:40:36;84.13;;;79.13;;
2035;SDS011;23642;42.658;23.350;2022-08-11T16:43:05;81.73;;;76.93;;
2035;SDS011;23642;42.658;23.350;2022-08-11T16:45:52;82.47;;;77.57;;
2035;SDS011;23642;42.658;23.350;2022-08-11T16:48:38;84.90;;;79.13;;
2035;SDS011;23642;42.658;23.350;2022-08-11T16:51:10;83.30;;;78.30;;
2035;SDS011;23642;42.658;23.350;2022-08-11T16:53:38;84.20;;;79.20;;
2035;SDS011;23642;42.658;23.350;2022-08-11T16:56:11;84.23;;;79.13;;
2035;SDS011;23642;42.658;23.350;2022-08-11T16:58:41;84.27;;;79.30;;
2035;SDS011;23642;42.658;23.350;2022-08-11T17:01:28;84.90;;;79.73;;